sensor_id;sensor_type;location;lat;lon;timestamp;P1;durP1;ratioP1;P2;durP2;ratioP2
17844;SDS011;9047;53.486;10.218;2022-07-23T00:00:02;5.80;;;1.63;;
17844;SDS011;9047;53.486;10.218;2022-07-23T00:02:33;3.35;;;1.42;;
17844;SDS011;9047;53.486;10.218;2022-07-23T00:05:00;5.00;;;1.50;;
17844;SDS011;9047;53.486;10.218;2022-07-23T00:07:27;4.03;;;1.70;;
17844;SDS011;9047;53.486;10.218;2022-07-23T00:09:56;3.33;;;1.67;;
17844;SDS011;9047;53.486;10.218;2022-07-23T00:12:22;3.17;;;1.55;;
17844;SDS011;9047;53.486;10.218;2022-07-23T00:14:51;1.80;;;1.17;;
17844;SDS011;9047;53.486;10.218;2022-07-23T00:17:18;3.00;;;1.45;;
17844;SDS011;9047;53.486;10.218;2022-07-23T00:19:45;5.05;;;1.50;;
17844;SDS011;9047;53.486;10.218;2022-07-23T00:22:11;3.38;;;1.50;;
17844;SDS011;9047;53.486;10.218;2022-07-23T00:24:39;2.78;;;1.30;;
17844;SDS011;9047;53.486;10.218;2022-07-23T00:27:06;4.03;;;1.80;;
17844;SDS011;9047;53.486;10.218;2022-07-23T00:29:33;4.53;;;1.50;;
17844;SDS011;9047;53.486;10.218;2022-07-23T00:32:01;4.78;;;1.60;;
17844;SDS011;9047;53.486;10.218;2022-07-23T00:34:28;4.65;;;1.65;;
17844;SDS011;9047;53.486;10.218;2022-07-23T00:36:55;4.28;;;1.48;;
17844;SDS011;9047;53.486;10.218;2022-07-23T00:39:23;4.15;;;1.20;;
17844;SDS011;9047;53.486;10.218;2022-07-23T00:41:51;3.22;;;1.33;;
17844;SDS011;9047;53.486;10.218;2022-07-23T00:44:18;3.70;;;1.50;;
17844;SDS011;9047;53.486;10.218;2022-07-23T00:46:46;3.72;;;1.45;;
17844;SDS011;9047;53.486;10.218;2022-07-23T00:49:16;6.65;;;1.40;;
17844;SDS011;9047;53.486;10.218;2022-07-23T00:51:43;2.75;;;1.42;;
17844;SDS011;9047;53.486;10.218;2022-07-23T00:54:10;3.72;;;1.30;;
17844;SDS011;9047;53.486;10.218;2022-07-23T00:56:37;3.65;;;1.58;;
17844;SDS011;9047;53.486;10.218;2022-07-23T00:59:04;3.78;;;1.50;;
17844;SDS011;9047;53.486;10.218;2022-07-23T01:01:32;4.95;;;1.73;;
17844;SDS011;9047;53.486;10.218;2022-07-23T01:04:00;3.13;;;1.30;;
17844;SDS011;9047;53.486;10.218;2022-07-23T01:06:28;3.33;;;1.40;;
17844;SDS011;9047;53.486;10.218;2022-07-23T01:08:55;6.03;;;1.40;;
17844;SDS011;9047;53.486;10.218;2022-07-23T01:11:22;3.60;;;1.30;;
17844;SDS011;9047;53.486;10.218;2022-07-23T01:13:50;3.42;;;1.70;;
17844;SDS011;9047;53.486;10.218;2022-07-23T01:16:18;4.50;;;1.40;;
17844;SDS011;9047;53.486;10.218;2022-07-23T01:18:45;3.85;;;1.25;;
17844;SDS011;9047;53.486;10.218;2022-07-23T01:21:12;3.10;;;1.42;;
17844;SDS011;9047;53.486;10.218;2022-07-23T01:23:41;5.40;;;1.40;;
17844;SDS011;9047;53.486;10.218;2022-07-23T01:26:08;3.30;;;1.00;;
17844;SDS011;9047;53.486;10.218;2022-07-23T01:28:35;3.20;;;1.10;;
17844;SDS011;9047;53.486;10.218;2022-07-23T01:31:02;4.10;;;1.27;;
17844;SDS011;9047;53.486;10.218;2022-07-23T01:33:28;2.45;;;1.50;;
17844;SDS011;9047;53.486;10.218;2022-07-23T01:35:55;2.47;;;1.10;;
17844;SDS011;9047;53.486;10.218;2022-07-23T01:38:22;2.80;;;1.38;;
17844;SDS011;9047;53.486;10.218;2022-07-23T01:40:50;2.33;;;1.20;;
17844;SDS011;9047;53.486;10.218;2022-07-23T01:43:17;3.08;;;1.38;;
17844;SDS011;9047;53.486;10.218;2022-07-23T01:45:43;6.20;;;1.70;;
17844;SDS011;9047;53.486;10.218;2022-07-23T01:48:10;3.17;;;1.30;;
17844;SDS011;9047;53.486;10.218;2022-07-23T01:50:37;4.55;;;1.20;;
17844;SDS011;9047;53.486;10.218;2022-07-23T01:53:04;4.90;;;1.55;;
17844;SDS011;9047;53.486;10.218;2022-07-23T01:55:30;2.95;;;1.15;;
17844;SDS011;9047;53.486;10.218;2022-07-23T01:57:58;3.30;;;1.30;;
17844;SDS011;9047;53.486;10.218;2022-07-23T02:00:26;4.25;;;1.42;;
17844;SDS011;9047;53.486;10.218;2022-07-23T02:02:53;3.72;;;1.25;;
17844;SDS011;9047;53.486;10.218;2022-07-23T02:05:19;7.35;;;1.52;;
17844;SDS011;9047;53.486;10.218;2022-07-23T02:07:46;2.72;;;1.40;;
17844;SDS011;9047;53.486;10.218;2022-07-23T02:10:13;4.38;;;1.52;;
17844;SDS011;9047;53.486;10.218;2022-07-23T02:12:40;2.33;;;1.23;;
17844;SDS011;9047;53.486;10.218;2022-07-23T02:15:09;4.32;;;1.70;;
17844;SDS011;9047;53.486;10.218;2022-07-23T02:17:36;2.00;;;1.30;;
17844;SDS011;9047;53.486;10.218;2022-07-23T02:20:04;2.10;;;1.25;;
17844;SDS011;9047;53.486;10.218;2022-07-23T02:22:32;2.35;;;1.10;;
17844;SDS011;9047;53.486;10.218;2022-07-23T02:24:59;4.32;;;1.30;;
17844;SDS011;9047;53.486;10.218;2022-07-23T02:27:26;4.40;;;1.20;;
17844;SDS011;9047;53.486;10.218;2022-07-23T02:29:53;3.83;;;1.42;;
17844;SDS011;9047;53.486;10.218;2022-07-23T02:32:21;6.05;;;1.27;;
17844;SDS011;9047;53.486;10.218;2022-07-23T02:34:48;7.03;;;1.40;;
17844;SDS011;9047;53.486;10.218;2022-07-23T02:37:15;4.63;;;1.70;;
17844;SDS011;9047;53.486;10.218;2022-07-23T02:39:43;3.90;;;1.30;;
17844;SDS011;9047;53.486;10.218;2022-07-23T02:42:09;4.78;;;1.40;;
17844;SDS011;9047;53.486;10.218;2022-07-23T02:44:36;3.70;;;1.40;;
17844;SDS011;9047;53.486;10.218;2022-07-23T02:47:03;3.78;;;1.20;;
17844;SDS011;9047;53.486;10.218;2022-07-23T02:49:31;2.30;;;1.20;;
17844;SDS011;9047;53.486;10.218;2022-07-23T02:51:59;5.93;;;1.60;;
17844;SDS011;9047;53.486;10.218;2022-07-23T02:54:26;4.18;;;1.30;;
17844;SDS011;9047;53.486;10.218;2022-07-23T02:56:53;2.35;;;1.50;;
17844;SDS011;9047;53.486;10.218;2022-07-23T02:59:20;2.58;;;1.48;;
17844;SDS011;9047;53.486;10.218;2022-07-23T03:01:47;3.55;;;1.60;;
17844;SDS011;9047;53.486;10.218;2022-07-23T03:04:13;3.38;;;1.30;;
17844;SDS011;9047;53.486;10.218;2022-07-23T03:06:41;3.22;;;1.27;;
17844;SDS011;9047;53.486;10.218;2022-07-23T03:09:08;4.57;;;1.40;;
17844;SDS011;9047;53.486;10.218;2022-07-23T03:11:35;5.60;;;1.83;;
17844;SDS011;9047;53.486;10.218;2022-07-23T03:14:02;4.63;;;1.80;;
17844;SDS011;9047;53.486;10.218;2022-07-23T03:16:28;3.55;;;1.50;;
17844;SDS011;9047;53.486;10.218;2022-07-23T03:18:55;3.58;;;1.55;;
17844;SDS011;9047;53.486;10.218;2022-07-23T03:21:22;2.88;;;1.38;;
17844;SDS011;9047;53.486;10.218;2022-07-23T03:23:50;5.38;;;1.50;;
17844;SDS011;9047;53.486;10.218;2022-07-23T03:26:17;3.35;;;1.60;;
17844;SDS011;9047;53.486;10.218;2022-07-23T03:28:44;8.27;;;1.75;;
17844;SDS011;9047;53.486;10.218;2022-07-23T03:31:10;4.47;;;1.90;;
17844;SDS011;9047;53.486;10.218;2022-07-23T03:33:37;2.95;;;1.50;;
17844;SDS011;9047;53.486;10.218;2022-07-23T03:36:04;3.53;;;1.45;;
17844;SDS011;9047;53.486;10.218;2022-07-23T03:38:31;2.47;;;1.40;;
17844;SDS011;9047;53.486;10.218;2022-07-23T03:40:59;4.13;;;1.85;;
17844;SDS011;9047;53.486;10.218;2022-07-23T03:43:26;3.08;;;1.65;;
17844;SDS011;9047;53.486;10.218;2022-07-23T03:46:00;4.93;;;1.80;;
17844;SDS011;9047;53.486;10.218;2022-07-23T03:48:27;1.88;;;1.60;;
17844;SDS011;9047;53.486;10.218;2022-07-23T03:50:56;2.60;;;1.70;;
17844;SDS011;9047;53.486;10.218;2022-07-23T03:53:23;4.32;;;1.90;;
17844;SDS011;9047;53.486;10.218;2022-07-23T03:55:50;4.50;;;2.15;;
17844;SDS011;9047;53.486;10.218;2022-07-23T03:58:18;7.15;;;2.90;;
17844;SDS011;9047;53.486;10.218;2022-07-23T04:00:45;3.55;;;1.60;;
17844;SDS011;9047;53.486;10.218;2022-07-23T04:03:12;4.25;;;2.00;;
17844;SDS011;9047;53.486;10.218;2022-07-23T04:05:42;5.10;;;3.15;;
17844;SDS011;9047;53.486;10.218;2022-07-23T04:08:12;3.65;;;2.22;;
17844;SDS011;9047;53.486;10.218;2022-07-23T04:10:40;4.30;;;1.90;;
17844;SDS011;9047;53.486;10.218;2022-07-23T04:13:11;3.78;;;2.00;;
17844;SDS011;9047;53.486;10.218;2022-07-23T04:15:40;4.63;;;2.10;;
17844;SDS011;9047;53.486;10.218;2022-07-23T04:18:08;6.65;;;2.50;;
17844;SDS011;9047;53.486;10.218;2022-07-23T04:20:37;7.13;;;2.67;;
17844;SDS011;9047;53.486;10.218;2022-07-23T04:23:06;4.70;;;2.50;;
17844;SDS011;9047;53.486;10.218;2022-07-23T04:25:34;6.50;;;3.33;;
17844;SDS011;9047;53.486;10.218;2022-07-23T04:28:04;4.60;;;2.50;;
17844;SDS011;9047;53.486;10.218;2022-07-23T04:30:33;8.02;;;2.85;;
17844;SDS011;9047;53.486;10.218;2022-07-23T04:33:04;7.05;;;2.58;;
17844;SDS011;9047;53.486;10.218;2022-07-23T04:35:34;6.88;;;2.40;;
17844;SDS011;9047;53.486;10.218;2022-07-23T04:38:01;3.60;;;2.00;;
17844;SDS011;9047;53.486;10.218;2022-07-23T04:40:29;5.95;;;2.33;;
17844;SDS011;9047;53.486;10.218;2022-07-23T04:42:56;5.20;;;1.83;;
17844;SDS011;9047;53.486;10.218;2022-07-23T04:45:24;4.40;;;2.17;;
17844;SDS011;9047;53.486;10.218;2022-07-23T04:47:51;4.82;;;2.00;;
17844;SDS011;9047;53.486;10.218;2022-07-23T04:50:19;4.55;;;2.10;;
17844;SDS011;9047;53.486;10.218;2022-07-23T04:52:47;5.00;;;1.98;;
17844;SDS011;9047;53.486;10.218;2022-07-23T04:55:15;6.72;;;2.03;;
17844;SDS011;9047;53.486;10.218;2022-07-23T04:57:42;11.02;;;5.43;;
17844;SDS011;9047;53.486;10.218;2022-07-23T05:00:10;6.40;;;3.22;;
17844;SDS011;9047;53.486;10.218;2022-07-23T05:02:37;3.97;;;2.20;;
17844;SDS011;9047;53.486;10.218;2022-07-23T05:05:06;4.68;;;2.20;;
17844;SDS011;9047;53.486;10.218;2022-07-23T05:07:35;6.43;;;2.60;;
17844;SDS011;9047;53.486;10.218;2022-07-23T05:10:02;9.10;;;3.28;;
17844;SDS011;9047;53.486;10.218;2022-07-23T05:12:29;5.40;;;2.83;;
17844;SDS011;9047;53.486;10.218;2022-07-23T05:14:57;6.72;;;3.00;;
17844;SDS011;9047;53.486;10.218;2022-07-23T05:17:24;6.22;;;3.10;;
17844;SDS011;9047;53.486;10.218;2022-07-23T05:19:51;9.00;;;3.05;;
17844;SDS011;9047;53.486;10.218;2022-07-23T05:22:18;6.97;;;3.20;;
17844;SDS011;9047;53.486;10.218;2022-07-23T05:24:46;6.68;;;2.92;;
17844;SDS011;9047;53.486;10.218;2022-07-23T05:27:13;6.82;;;3.33;;
17844;SDS011;9047;53.486;10.218;2022-07-23T05:29:40;6.55;;;3.60;;
17844;SDS011;9047;53.486;10.218;2022-07-23T05:32:08;6.65;;;3.15;;
17844;SDS011;9047;53.486;10.218;2022-07-23T05:34:35;5.97;;;3.42;;
17844;SDS011;9047;53.486;10.218;2022-07-23T05:37:02;6.07;;;3.25;;
17844;SDS011;9047;53.486;10.218;2022-07-23T05:39:29;7.28;;;3.30;;
17844;SDS011;9047;53.486;10.218;2022-07-23T05:41:57;7.05;;;3.20;;
17844;SDS011;9047;53.486;10.218;2022-07-23T05:44:26;7.43;;;3.25;;
17844;SDS011;9047;53.486;10.218;2022-07-23T05:46:53;6.97;;;3.13;;
17844;SDS011;9047;53.486;10.218;2022-07-23T05:49:20;13.50;;;3.83;;
17844;SDS011;9047;53.486;10.218;2022-07-23T05:51:47;5.78;;;2.78;;
17844;SDS011;9047;53.486;10.218;2022-07-23T05:54:13;4.63;;;2.83;;
17844;SDS011;9047;53.486;10.218;2022-07-23T05:56:40;6.30;;;3.08;;
17844;SDS011;9047;53.486;10.218;2022-07-23T05:59:08;6.38;;;2.95;;
17844;SDS011;9047;53.486;10.218;2022-07-23T06:01:37;5.43;;;2.80;;
17844;SDS011;9047;53.486;10.218;2022-07-23T06:04:03;4.45;;;2.97;;
17844;SDS011;9047;53.486;10.218;2022-07-23T06:06:32;4.82;;;3.00;;
17844;SDS011;9047;53.486;10.218;2022-07-23T06:08:59;6.63;;;2.90;;
17844;SDS011;9047;53.486;10.218;2022-07-23T06:11:26;6.72;;;3.05;;
17844;SDS011;9047;53.486;10.218;2022-07-23T06:13:53;5.50;;;2.80;;
17844;SDS011;9047;53.486;10.218;2022-07-23T06:16:23;6.95;;;3.03;;
17844;SDS011;9047;53.486;10.218;2022-07-23T06:18:50;4.32;;;2.33;;
17844;SDS011;9047;53.486;10.218;2022-07-23T06:21:16;7.03;;;2.90;;
17844;SDS011;9047;53.486;10.218;2022-07-23T06:23:43;4.60;;;2.53;;
17844;SDS011;9047;53.486;10.218;2022-07-23T06:26:10;5.68;;;2.40;;
17844;SDS011;9047;53.486;10.218;2022-07-23T06:28:37;5.30;;;2.60;;
17844;SDS011;9047;53.486;10.218;2022-07-23T06:31:04;6.72;;;2.45;;
17844;SDS011;9047;53.486;10.218;2022-07-23T06:33:32;6.05;;;2.60;;
17844;SDS011;9047;53.486;10.218;2022-07-23T06:35:59;5.65;;;2.50;;
17844;SDS011;9047;53.486;10.218;2022-07-23T06:38:26;5.25;;;2.08;;
17844;SDS011;9047;53.486;10.218;2022-07-23T06:40:53;3.65;;;1.88;;
17844;SDS011;9047;53.486;10.218;2022-07-23T06:43:20;4.45;;;2.13;;
17844;SDS011;9047;53.486;10.218;2022-07-23T06:45:47;3.97;;;1.90;;
17844;SDS011;9047;53.486;10.218;2022-07-23T06:48:13;4.68;;;1.80;;
17844;SDS011;9047;53.486;10.218;2022-07-23T06:50:41;3.45;;;1.60;;
17844;SDS011;9047;53.486;10.218;2022-07-23T06:53:08;3.55;;;1.38;;
17844;SDS011;9047;53.486;10.218;2022-07-23T06:55:35;4.47;;;1.60;;
17844;SDS011;9047;53.486;10.218;2022-07-23T06:58:03;2.35;;;1.50;;
17844;SDS011;9047;53.486;10.218;2022-07-23T07:00:34;3.97;;;1.60;;
17844;SDS011;9047;53.486;10.218;2022-07-23T07:03:00;6.45;;;1.77;;
17844;SDS011;9047;53.486;10.218;2022-07-23T07:05:27;4.55;;;1.40;;
17844;SDS011;9047;53.486;10.218;2022-07-23T07:07:56;2.65;;;1.42;;
17844;SDS011;9047;53.486;10.218;2022-07-23T07:10:23;4.50;;;1.58;;
17844;SDS011;9047;53.486;10.218;2022-07-23T07:12:50;3.25;;;1.70;;
17844;SDS011;9047;53.486;10.218;2022-07-23T07:15:16;5.28;;;1.50;;
17844;SDS011;9047;53.486;10.218;2022-07-23T07:17:43;3.47;;;1.30;;
17844;SDS011;9047;53.486;10.218;2022-07-23T07:20:10;5.93;;;1.55;;
17844;SDS011;9047;53.486;10.218;2022-07-23T07:22:37;4.43;;;1.35;;
17844;SDS011;9047;53.486;10.218;2022-07-23T07:25:07;3.70;;;1.23;;
17844;SDS011;9047;53.486;10.218;2022-07-23T07:27:34;3.45;;;1.20;;
17844;SDS011;9047;53.486;10.218;2022-07-23T07:30:01;3.38;;;1.33;;
17844;SDS011;9047;53.486;10.218;2022-07-23T07:32:28;5.90;;;1.30;;
17844;SDS011;9047;53.486;10.218;2022-07-23T07:34:57;3.45;;;1.30;;
17844;SDS011;9047;53.486;10.218;2022-07-23T07:37:27;2.95;;;1.25;;
17844;SDS011;9047;53.486;10.218;2022-07-23T07:39:56;5.30;;;1.42;;
17844;SDS011;9047;53.486;10.218;2022-07-23T07:42:24;3.58;;;1.10;;
17844;SDS011;9047;53.486;10.218;2022-07-23T07:44:51;2.53;;;1.05;;
17844;SDS011;9047;53.486;10.218;2022-07-23T07:47:18;1.73;;;0.90;;
17844;SDS011;9047;53.486;10.218;2022-07-23T07:49:46;4.13;;;0.80;;
17844;SDS011;9047;53.486;10.218;2022-07-23T07:52:17;1.40;;;0.90;;
17844;SDS011;9047;53.486;10.218;2022-07-23T07:54:44;2.53;;;1.00;;
17844;SDS011;9047;53.486;10.218;2022-07-23T07:57:11;2.42;;;1.20;;
17844;SDS011;9047;53.486;10.218;2022-07-23T07:59:39;2.20;;;0.93;;
17844;SDS011;9047;53.486;10.218;2022-07-23T08:02:08;1.95;;;0.90;;
17844;SDS011;9047;53.486;10.218;2022-07-23T08:04:37;2.35;;;0.95;;
17844;SDS011;9047;53.486;10.218;2022-07-23T08:07:14;2.40;;;0.80;;
17844;SDS011;9047;53.486;10.218;2022-07-23T08:09:41;3.80;;;0.80;;
17844;SDS011;9047;53.486;10.218;2022-07-23T08:12:08;2.35;;;0.90;;
17844;SDS011;9047;53.486;10.218;2022-07-23T08:14:35;1.70;;;0.82;;
17844;SDS011;9047;53.486;10.218;2022-07-23T08:17:05;2.08;;;1.00;;
17844;SDS011;9047;53.486;10.218;2022-07-23T08:19:33;2.85;;;1.00;;
17844;SDS011;9047;53.486;10.218;2022-07-23T08:22:00;3.60;;;0.93;;
17844;SDS011;9047;53.486;10.218;2022-07-23T08:24:28;3.42;;;1.00;;
17844;SDS011;9047;53.486;10.218;2022-07-23T08:26:55;2.10;;;0.85;;
17844;SDS011;9047;53.486;10.218;2022-07-23T08:29:22;2.40;;;0.75;;
17844;SDS011;9047;53.486;10.218;2022-07-23T08:31:51;2.17;;;0.73;;
17844;SDS011;9047;53.486;10.218;2022-07-23T08:34:19;3.45;;;0.88;;
17844;SDS011;9047;53.486;10.218;2022-07-23T08:36:46;2.50;;;0.80;;
17844;SDS011;9047;53.486;10.218;2022-07-23T08:39:14;2.20;;;0.80;;
17844;SDS011;9047;53.486;10.218;2022-07-23T08:41:41;3.45;;;1.00;;
17844;SDS011;9047;53.486;10.218;2022-07-23T08:44:08;1.50;;;0.70;;
17844;SDS011;9047;53.486;10.218;2022-07-23T08:46:35;2.67;;;0.90;;
17844;SDS011;9047;53.486;10.218;2022-07-23T08:49:05;1.45;;;0.77;;
17844;SDS011;9047;53.486;10.218;2022-07-23T08:51:35;1.20;;;0.60;;
17844;SDS011;9047;53.486;10.218;2022-07-23T08:54:02;2.42;;;0.93;;
17844;SDS011;9047;53.486;10.218;2022-07-23T08:56:34;2.20;;;0.70;;
17844;SDS011;9047;53.486;10.218;2022-07-23T08:59:05;2.17;;;0.73;;
17844;SDS011;9047;53.486;10.218;2022-07-23T09:01:33;0.70;;;0.40;;
17844;SDS011;9047;53.486;10.218;2022-07-23T09:04:03;2.42;;;0.82;;
17844;SDS011;9047;53.486;10.218;2022-07-23T09:06:30;1.65;;;0.55;;
17844;SDS011;9047;53.486;10.218;2022-07-23T09:09:00;1.88;;;0.50;;
17844;SDS011;9047;53.486;10.218;2022-07-23T09:11:51;0.93;;;0.30;;
17844;SDS011;9047;53.486;10.218;2022-07-23T09:14:39;1.67;;;0.90;;
17844;SDS011;9047;53.486;10.218;2022-07-23T09:17:10;1.80;;;0.52;;
17844;SDS011;9047;53.486;10.218;2022-07-23T09:19:39;0.93;;;0.60;;
17844;SDS011;9047;53.486;10.218;2022-07-23T09:22:19;1.67;;;0.50;;
17844;SDS011;9047;53.486;10.218;2022-07-23T09:25:05;1.15;;;0.50;;
17844;SDS011;9047;53.486;10.218;2022-07-23T09:27:47;1.40;;;0.68;;
17844;SDS011;9047;53.486;10.218;2022-07-23T09:30:19;1.05;;;0.60;;
17844;SDS011;9047;53.486;10.218;2022-07-23T09:33:03;2.05;;;0.40;;
17844;SDS011;9047;53.486;10.218;2022-07-23T09:35:43;0.85;;;0.50;;
17844;SDS011;9047;53.486;10.218;2022-07-23T09:38:34;1.80;;;0.50;;
17844;SDS011;9047;53.486;10.218;2022-07-23T09:41:19;1.25;;;0.60;;
17844;SDS011;9047;53.486;10.218;2022-07-23T09:43:50;1.13;;;0.50;;
17844;SDS011;9047;53.486;10.218;2022-07-23T09:46:24;2.20;;;0.50;;
17844;SDS011;9047;53.486;10.218;2022-07-23T09:49:10;1.08;;;0.70;;
17844;SDS011;9047;53.486;10.218;2022-07-23T09:51:55;1.00;;;0.50;;
17844;SDS011;9047;53.486;10.218;2022-07-23T09:54:25;1.70;;;0.57;;
17844;SDS011;9047;53.486;10.218;2022-07-23T09:57:05;2.13;;;0.65;;
17844;SDS011;9047;53.486;10.218;2022-07-23T09:59:40;1.60;;;0.55;;
17844;SDS011;9047;53.486;10.218;2022-07-23T10:02:15;2.53;;;1.02;;
17844;SDS011;9047;53.486;10.218;2022-07-23T10:04:45;1.55;;;0.60;;
17844;SDS011;9047;53.486;10.218;2022-07-23T10:07:13;3.35;;;0.60;;
17844;SDS011;9047;53.486;10.218;2022-07-23T10:09:48;1.95;;;0.60;;
17844;SDS011;9047;53.486;10.218;2022-07-23T10:12:41;4.50;;;0.73;;
17844;SDS011;9047;53.486;10.218;2022-07-23T10:15:29;2.80;;;0.70;;
17844;SDS011;9047;53.486;10.218;2022-07-23T10:18:06;1.83;;;0.60;;
17844;SDS011;9047;53.486;10.218;2022-07-23T10:20:37;0.98;;;0.50;;
17844;SDS011;9047;53.486;10.218;2022-07-23T10:23:08;0.70;;;0.40;;
17844;SDS011;9047;53.486;10.218;2022-07-23T10:25:44;1.27;;;0.60;;
17844;SDS011;9047;53.486;10.218;2022-07-23T10:28:46;0.55;;;0.38;;
17844;SDS011;9047;53.486;10.218;2022-07-23T10:31:31;1.80;;;0.50;;
17844;SDS011;9047;53.486;10.218;2022-07-23T10:34:10;1.00;;;0.50;;
17844;SDS011;9047;53.486;10.218;2022-07-23T10:36:47;0.73;;;0.50;;
17844;SDS011;9047;53.486;10.218;2022-07-23T10:39:19;1.35;;;0.52;;
17844;SDS011;9047;53.486;10.218;2022-07-23T10:41:52;1.73;;;0.80;;
17844;SDS011;9047;53.486;10.218;2022-07-23T10:44:40;2.38;;;0.52;;
17844;SDS011;9047;53.486;10.218;2022-07-23T10:47:09;0.95;;;0.60;;
17844;SDS011;9047;53.486;10.218;2022-07-23T10:56:00;1.38;;;0.50;;
17844;SDS011;9047;53.486;10.218;2022-07-23T11:04:11;2.03;;;0.57;;
17844;SDS011;9047;53.486;10.218;2022-07-23T11:09:38;0.80;;;0.30;;
17844;SDS011;9047;53.486;10.218;2022-07-23T11:15:04;1.33;;;0.40;;
17844;SDS011;9047;53.486;10.218;2022-07-23T11:18:00;1.48;;;0.50;;
17844;SDS011;9047;53.486;10.218;2022-07-23T11:20:27;0.65;;;0.47;;
17844;SDS011;9047;53.486;10.218;2022-07-23T11:22:56;0.70;;;0.40;;
17844;SDS011;9047;53.486;10.218;2022-07-23T11:25:29;0.95;;;0.40;;
17844;SDS011;9047;53.486;10.218;2022-07-23T11:28:10;0.85;;;0.40;;
17844;SDS011;9047;53.486;10.218;2022-07-23T11:30:41;2.83;;;0.50;;
17844;SDS011;9047;53.486;10.218;2022-07-23T11:33:17;0.50;;;0.50;;
17844;SDS011;9047;53.486;10.218;2022-07-23T11:35:50;2.58;;;0.50;;
17844;SDS011;9047;53.486;10.218;2022-07-23T11:38:31;1.05;;;0.50;;
17844;SDS011;9047;53.486;10.218;2022-07-23T11:41:02;0.75;;;0.50;;
17844;SDS011;9047;53.486;10.218;2022-07-23T11:43:30;1.25;;;0.57;;
17844;SDS011;9047;53.486;10.218;2022-07-23T11:45:58;1.48;;;0.52;;
17844;SDS011;9047;53.486;10.218;2022-07-23T11:48:28;1.00;;;0.50;;
17844;SDS011;9047;53.486;10.218;2022-07-23T11:50:56;1.55;;;0.57;;
17844;SDS011;9047;53.486;10.218;2022-07-23T11:53:24;2.33;;;0.60;;
17844;SDS011;9047;53.486;10.218;2022-07-23T11:55:53;0.90;;;0.40;;
17844;SDS011;9047;53.486;10.218;2022-07-23T11:58:20;1.08;;;0.40;;
17844;SDS011;9047;53.486;10.218;2022-07-23T12:00:50;1.05;;;0.40;;
17844;SDS011;9047;53.486;10.218;2022-07-23T12:03:25;0.77;;;0.50;;
17844;SDS011;9047;53.486;10.218;2022-07-23T12:05:56;0.43;;;0.43;;
17844;SDS011;9047;53.486;10.218;2022-07-23T12:08:23;0.50;;;0.40;;
17844;SDS011;9047;53.486;10.218;2022-07-23T12:10:50;0.70;;;0.43;;
17844;SDS011;9047;53.486;10.218;2022-07-23T12:13:18;0.85;;;0.40;;
17844;SDS011;9047;53.486;10.218;2022-07-23T12:15:50;1.23;;;0.40;;
17844;SDS011;9047;53.486;10.218;2022-07-23T12:18:19;0.85;;;0.55;;
17844;SDS011;9047;53.486;10.218;2022-07-23T12:20:50;1.55;;;0.50;;
17844;SDS011;9047;53.486;10.218;2022-07-23T12:23:18;1.13;;;0.50;;
17844;SDS011;9047;53.486;10.218;2022-07-23T12:25:47;0.68;;;0.47;;
17844;SDS011;9047;53.486;10.218;2022-07-23T12:28:15;1.45;;;0.70;;
17844;SDS011;9047;53.486;10.218;2022-07-23T12:30:44;1.33;;;0.60;;
17844;SDS011;9047;53.486;10.218;2022-07-23T12:33:21;1.27;;;0.70;;
17844;SDS011;9047;53.486;10.218;2022-07-23T12:35:56;2.78;;;0.93;;
17844;SDS011;9047;53.486;10.218;2022-07-23T12:38:26;1.70;;;0.80;;
17844;SDS011;9047;53.486;10.218;2022-07-23T12:41:10;2.20;;;0.85;;
17844;SDS011;9047;53.486;10.218;2022-07-23T12:43:42;2.75;;;0.80;;
17844;SDS011;9047;53.486;10.218;2022-07-23T12:46:11;2.75;;;1.20;;
17844;SDS011;9047;53.486;10.218;2022-07-23T12:48:50;5.78;;;1.05;;
17844;SDS011;9047;53.486;10.218;2022-07-23T12:51:26;1.30;;;0.65;;
17844;SDS011;9047;53.486;10.218;2022-07-23T12:53:58;1.90;;;0.88;;
17844;SDS011;9047;53.486;10.218;2022-07-23T12:56:36;2.53;;;1.00;;
17844;SDS011;9047;53.486;10.218;2022-07-23T12:59:07;1.52;;;0.90;;
17844;SDS011;9047;53.486;10.218;2022-07-23T13:01:39;1.70;;;0.77;;
17844;SDS011;9047;53.486;10.218;2022-07-23T13:04:18;2.33;;;1.00;;
17844;SDS011;9047;53.486;10.218;2022-07-23T13:07:01;4.05;;;1.00;;
17844;SDS011;9047;53.486;10.218;2022-07-23T13:09:29;3.38;;;0.93;;
17844;SDS011;9047;53.486;10.218;2022-07-23T13:12:01;2.45;;;0.95;;
17844;SDS011;9047;53.486;10.218;2022-07-23T13:14:38;2.53;;;1.00;;
17844;SDS011;9047;53.486;10.218;2022-07-23T13:17:07;4.68;;;1.20;;
17844;SDS011;9047;53.486;10.218;2022-07-23T13:19:39;1.35;;;0.95;;
17844;SDS011;9047;53.486;10.218;2022-07-23T13:22:09;3.63;;;1.00;;
17844;SDS011;9047;53.486;10.218;2022-07-23T13:24:36;2.90;;;1.08;;
17844;SDS011;9047;53.486;10.218;2022-07-23T13:27:13;1.48;;;0.82;;
17844;SDS011;9047;53.486;10.218;2022-07-23T13:29:40;2.85;;;0.90;;
17844;SDS011;9047;53.486;10.218;2022-07-23T13:32:12;2.67;;;1.10;;
17844;SDS011;9047;53.486;10.218;2022-07-23T13:34:40;2.15;;;0.90;;
17844;SDS011;9047;53.486;10.218;2022-07-23T13:37:14;1.60;;;0.70;;
17844;SDS011;9047;53.486;10.218;2022-07-23T13:39:42;2.47;;;1.00;;
17844;SDS011;9047;53.486;10.218;2022-07-23T13:42:10;2.50;;;0.90;;
17844;SDS011;9047;53.486;10.218;2022-07-23T13:44:40;2.35;;;0.90;;
17844;SDS011;9047;53.486;10.218;2022-07-23T13:47:07;3.70;;;1.17;;
17844;SDS011;9047;53.486;10.218;2022-07-23T13:49:35;1.85;;;0.80;;
17844;SDS011;9047;53.486;10.218;2022-07-23T13:52:04;1.83;;;1.13;;
17844;SDS011;9047;53.486;10.218;2022-07-23T13:54:36;1.67;;;1.00;;
17844;SDS011;9047;53.486;10.218;2022-07-23T13:57:03;2.05;;;0.80;;
17844;SDS011;9047;53.486;10.218;2022-07-23T13:59:31;2.72;;;0.82;;
17844;SDS011;9047;53.486;10.218;2022-07-23T14:01:58;2.30;;;0.70;;
17844;SDS011;9047;53.486;10.218;2022-07-23T14:04:27;1.95;;;0.80;;
17844;SDS011;9047;53.486;10.218;2022-07-23T14:06:55;2.70;;;0.98;;
17844;SDS011;9047;53.486;10.218;2022-07-23T14:09:21;0.75;;;0.60;;
17844;SDS011;9047;53.486;10.218;2022-07-23T14:12:00;1.85;;;0.95;;
17844;SDS011;9047;53.486;10.218;2022-07-23T14:14:27;3.38;;;0.70;;
17844;SDS011;9047;53.486;10.218;2022-07-23T14:17:01;1.38;;;0.80;;
17844;SDS011;9047;53.486;10.218;2022-07-23T14:19:31;2.50;;;1.02;;
17844;SDS011;9047;53.486;10.218;2022-07-23T14:22:00;2.70;;;0.70;;
17844;SDS011;9047;53.486;10.218;2022-07-23T14:24:30;2.17;;;0.70;;
17844;SDS011;9047;53.486;10.218;2022-07-23T14:26:58;1.50;;;0.65;;
17844;SDS011;9047;53.486;10.218;2022-07-23T14:29:28;2.17;;;0.70;;
17844;SDS011;9047;53.486;10.218;2022-07-23T14:31:55;0.88;;;0.65;;
17844;SDS011;9047;53.486;10.218;2022-07-23T14:34:23;3.83;;;0.90;;
17844;SDS011;9047;53.486;10.218;2022-07-23T14:36:50;1.02;;;0.70;;
17844;SDS011;9047;53.486;10.218;2022-07-23T14:39:17;1.50;;;0.70;;
17844;SDS011;9047;53.486;10.218;2022-07-23T14:41:45;1.42;;;0.80;;
17844;SDS011;9047;53.486;10.218;2022-07-23T14:44:14;1.90;;;0.70;;
17844;SDS011;9047;53.486;10.218;2022-07-23T14:46:43;2.63;;;0.90;;
17844;SDS011;9047;53.486;10.218;2022-07-23T14:49:14;1.70;;;1.15;;
17844;SDS011;9047;53.486;10.218;2022-07-23T14:51:45;1.33;;;0.90;;
17844;SDS011;9047;53.486;10.218;2022-07-23T14:54:15;3.20;;;0.90;;
17844;SDS011;9047;53.486;10.218;2022-07-23T14:56:46;2.60;;;1.10;;
17844;SDS011;9047;53.486;10.218;2022-07-23T14:59:16;2.17;;;1.10;;
17844;SDS011;9047;53.486;10.218;2022-07-23T15:01:50;3.35;;;0.98;;
17844;SDS011;9047;53.486;10.218;2022-07-23T15:04:17;1.13;;;0.80;;
17844;SDS011;9047;53.486;10.218;2022-07-23T15:06:49;1.70;;;0.85;;
17844;SDS011;9047;53.486;10.218;2022-07-23T15:09:18;1.17;;;0.80;;
17844;SDS011;9047;53.486;10.218;2022-07-23T15:11:46;4.20;;;0.80;;
17844;SDS011;9047;53.486;10.218;2022-07-23T15:14:17;3.75;;;0.90;;
17844;SDS011;9047;53.486;10.218;2022-07-23T15:16:45;1.45;;;0.80;;
17844;SDS011;9047;53.486;10.218;2022-07-23T15:19:13;2.95;;;1.15;;